Time;durP1;ratioP1;P1;durP2;ratioP2;P2;SDS_P1;SDS_P2;PMS_P1;PMS_P2;Temp;Humidity;BMP_temperature;BMP_pressure;BME280_temperature;BME280_humidity;BME280_pressure;Samples;Min_cycle;Max_cycle;Signal;HPM_P1;HPM_P2
2023/09/08 00:02:12;;;;;;;49.93;46.23;;;;;;;;;;5018868;28;20018;-59
2023/09/08 00:04:37;;;;;;;49.30;45.80;;;;;;;;;;5019094;28;20479;-58
2023/09/08 00:07:02;;;;;;;21.80;20.13;;;;;;;;;;5025714;28;20440;-57
2023/09/08 00:09:27;;;;;;;108.80;101.03;;;;;;;;;;5027268;28;20070;-57
2023/09/08 00:11:54;;;;;;;19.70;18.13;;;;;;;;;;5021101;28;20059;-58
2023/09/08 00:14:19;;;;;;;;;;;;;;;;;;5022481;28;20471;-58
2023/09/08 00:16:44;;;;;;;13.23;12.00;;;;;;;;;;5019181;28;19909;-57
2023/09/08 00:19:10;;;;;;;51.85;48.38;;;;;;;;;;5025718;28;20025;-58
2023/09/08 00:21:35;;;;;;;17.98;16.48;;;;;;;;;;5023211;28;20026;-57
2023/09/08 00:24:00;;;;;;;16.70;15.20;;;;;;;;;;5022308;28;20096;-58
2023/09/08 00:26:26;;;;;;;16.10;14.80;;;;;;;;;;5029544;28;20033;-57
2023/09/08 00:28:51;;;;;;;15.60;14.30;;;;;;;;;;5024380;28;20047;-58
2023/09/08 00:31:16;;;;;;;18.85;17.15;;;;;;;;;;5026561;28;20489;-58
2023/09/08 00:33:43;;;;;;;16.80;15.30;;;;;;;;;;5022455;28;20025;-58
2023/09/08 00:36:09;;;;;;;22.85;21.05;;;;;;;;;;5024443;28;20045;-56
2023/09/08 00:38:34;;;;;;;141.60;131.80;;;;;;;;;;5015503;28;20063;-56
2023/09/08 00:41:00;;;;;;;21.70;20.00;;;;;;;;;;5019065;28;20029;-57
2023/09/08 00:43:26;;;;;;;20.15;18.40;;;;;;;;;;5019770;28;20021;-57
2023/09/08 00:45:51;;;;;;;25.83;23.98;;;;;;;;;;5023285;28;20021;-56
2023/09/08 00:48:17;;;;;;;34.72;32.28;;;;;;;;;;5023360;28;20029;-57
2023/09/08 00:50:42;;;;;;;15.18;13.88;;;;;;;;;;5027918;28;20551;-58
2023/09/08 00:53:07;;;;;;;15.37;13.90;;;;;;;;;;5027807;28;20040;-57
2023/09/08 00:55:33;;;;;;;89.88;83.72;;;;;;;;;;5019773;28;20037;-57
2023/09/08 00:57:59;;;;;;;33.03;30.45;;;;;;;;;;5020835;28;20025;-58
2023/09/08 01:00:25;;;;;;;17.08;15.52;;;;;;;;;;5023138;28;20210;-57
2023/09/08 01:02:50;;;;;;;21.08;19.38;;;;;;;;;;5017856;28;20362;-56
2023/09/08 01:05:15;;;;;;;14.27;12.97;;;;;;;;;;5021233;28;20040;-58
2023/09/08 01:07:41;;;;;;;12.68;11.52;;;;;;;;;;5022082;28;20391;-59
2023/09/08 01:10:07;;;;;;;18.88;17.23;;;;;;;;;;5020747;28;20029;-58
2023/09/08 01:12:34;;;;;;;14.68;13.27;;;;;;;;;;5023101;28;20032;-58
2023/09/08 01:15:00;;;;;;;142.15;132.55;;;;;;;;;;5013250;28;20319;-58
2023/09/08 01:17:25;;;;;;;14.70;13.30;;;;;;;;;;5029492;28;20025;-58
2023/09/08 01:19:52;;;;;;;105.22;97.95;;;;;;;;;;5025523;28;20029;-58
2023/09/08 01:22:17;;;;;;;30.98;28.73;;;;;;;;;;5016226;28;20018;-57
2023/09/08 01:25:03;;;;;;;36.33;33.73;;;;;;;;;;5015461;28;20476;-58
2023/09/08 01:27:29;;;;;;;16.40;15.05;;;;;;;;;;5023240;28;20032;-58
2023/09/08 01:29:54;;;;;;;17.63;16.13;;;;;;;;;;5019644;28;20026;-58
2023/09/08 01:32:20;;;;;;;130.02;121.80;;;;;;;;;;5018633;28;20361;-58
2023/09/08 01:34:45;;;;;;;54.25;50.47;;;;;;;;;;5023068;28;20021;-58
2023/09/08 01:37:10;;;;;;;68.20;63.30;;;;;;;;;;5025076;28;20029;-58
2023/09/08 01:39:36;;;;;;;63.83;59.30;;;;;;;;;;5027249;28;20022;-58
2023/09/08 01:42:01;;;;;;;65.90;60.60;;;;;;;;;;5017498;28;20021;-59
2023/09/08 01:44:26;;;;;;;88.72;82.68;;;;;;;;;;5019655;28;20104;-56
2023/09/08 01:46:56;;;;;;;43.43;40.13;;;;;;;;;;5023795;28;20030;-58
2023/09/08 01:49:21;;;;;;;23.85;22.00;;;;;;;;;;5023226;28;20072;-58
2023/09/08 01:51:47;;;;;;;125.70;116.95;;;;;;;;;;5015378;28;20046;-58
2023/09/08 01:54:12;;;;;;;48.55;45.17;;;;;;;;;;5024744;28;20026;-59
2023/09/08 01:56:37;;;;;;;22.33;20.70;;;;;;;;;;5020576;28;20459;-58
2023/09/08 01:59:02;;;;;;;110.53;103.13;;;;;;;;;;5016247;28;20109;-57
2023/09/08 02:01:27;;;;;;;39.83;36.97;;;;;;;;;;5021065;28;20017;-57
2023/09/08 02:03:53;;;;;;;46.03;42.53;;;;;;;;;;5019472;28;20044;-57
2023/09/08 02:06:18;;;;;;;82.87;76.83;;;;;;;;;;5017078;28;20029;-58
2023/09/08 02:08:43;;;;;;;56.97;53.08;;;;;;;;;;5020193;28;20046;-59
2023/09/08 02:11:08;;;;;;;91.40;85.07;;;;;;;;;;5019917;28;20481;-58
2023/09/08 02:13:33;;;;;;;111.77;104.33;;;;;;;;;;5025925;28;20030;-57
2023/09/08 02:15:58;;;;;;;78.57;73.20;;;;;;;;;;5024710;28;20429;-58
2023/09/08 02:18:24;;;;;;;73.78;68.32;;;;;;;;;;5015039;28;20030;-58
2023/09/08 02:20:49;;;;;;;117.90;109.18;;;;;;;;;;5020080;28;20025;-57
2023/09/08 02:23:15;;;;;;;105.70;98.80;;;;;;;;;;5015638;28;20061;-56
2023/09/08 02:25:40;;;;;;;15.13;13.73;;;;;;;;;;5011910;28;20025;-58
2023/09/08 02:28:05;;;;;;;120.07;111.97;;;;;;;;;;5014565;28;20025;-57
2023/09/08 02:30:30;;;;;;;25.45;23.55;;;;;;;;;;5020051;28;20084;-58
2023/09/08 02:32:55;;;;;;;69.67;64.83;;;;;;;;;;5024300;28;20013;-58
2023/09/08 02:35:22;;;;;;;100.55;93.07;;;;;;;;;;5022725;28;20035;-57
2023/09/08 02:37:47;;;;;;;34.30;31.80;;;;;;;;;;5016109;28;20022;-59
2023/09/08 02:40:13;;;;;;;44.83;41.63;;;;;;;;;;5016736;28;20025;-58
2023/09/08 02:42:38;;;;;;;23.83;22.00;;;;;;;;;;5019480;28;20628;-58
2023/09/08 02:45:03;;;;;;;77.88;72.50;;;;;;;;;;5013056;28;20120;-58
2023/09/08 02:47:28;;;;;;;18.13;16.63;;;;;;;;;;5014388;28;20033;-59
2023/09/08 02:49:53;;;;;;;79.20;73.47;;;;;;;;;;5012197;28;20079;-58
2023/09/08 02:52:19;;;;;;;88.70;82.70;;;;;;;;;;5027341;28;20029;-58
2023/09/08 02:54:44;;;;;;;54.13;50.35;;;;;;;;;;5012060;28;20126;-59
2023/09/08 02:57:09;;;;;;;113.10;105.70;;;;;;;;;;5013238;28;20022;-59
2023/09/08 02:59:35;;;;;;;43.43;40.17;;;;;;;;;;5009920;28;20013;-59
2023/09/08 03:02:00;;;;;;;130.80;122.20;;;;;;;;;;5017270;28;20022;-58
2023/09/08 03:04:25;;;;;;;38.30;35.53;;;;;;;;;;5017284;28;20014;-58
2023/09/08 03:06:50;;;;;;;90.45;84.65;;;;;;;;;;5016326;28;20026;-58
2023/09/08 03:09:15;;;;;;;26.50;24.52;;;;;;;;;;5024051;28;20111;-58
2023/09/08 03:11:40;;;;;;;16.23;14.87;;;;;;;;;;5021263;28;20646;-58
2023/09/08 03:14:06;;;;;;;63.97;59.43;;;;;;;;;;5019335;28;20084;-58
2023/09/08 03:16:31;;;;;;;25.40;23.45;;;;;;;;;;5022159;28;20101;-58
2023/09/08 03:18:56;;;;;;;35.87;32.97;;;;;;;;;;5021918;28;20075;-58
2023/09/08 03:21:21;;;;;;;62.20;57.80;;;;;;;;;;5021389;28;20033;-58
2023/09/08 03:23:46;;;;;;;17.50;16.20;;;;;;;;;;5014826;28;20491;-58
2023/09/08 03:26:11;;;;;;;93.82;87.88;;;;;;;;;;5026689;28;20017;-58
2023/09/08 03:28:38;;;;;;;52.70;48.70;;;;;;;;;;5025136;28;20427;-57
2023/09/08 03:31:04;;;;;;;24.15;22.13;;;;;;;;;;5025090;28;20084;-58
2023/09/08 03:33:29;;;;;;;43.85;40.72;;;;;;;;;;5022934;28;20021;-58
2023/09/08 03:35:55;;;;;;;20.13;18.43;;;;;;;;;;5023969;28;20014;-57
2023/09/08 03:38:20;;;;;;;87.07;81.25;;;;;;;;;;5020338;28;20025;-57
2023/09/08 03:40:45;;;;;;;42.60;39.67;;;;;;;;;;5019279;28;20224;-57
2023/09/08 03:43:10;;;;;;;70.10;64.70;;;;;;;;;;5021676;28;20443;-58
2023/09/08 03:45:35;;;;;;;46.13;42.60;;;;;;;;;;5016293;28;20442;-57
2023/09/08 03:48:01;;;;;;;130.20;121.35;;;;;;;;;;5018412;28;20029;-57
2023/09/08 03:50:26;;;;;;;73.77;68.30;;;;;;;;;;5020498;28;20385;-57
2023/09/08 03:52:51;;;;;;;22.77;21.00;;;;;;;;;;5018050;28;20535;-57
2023/09/08 03:55:16;;;;;;;41.43;38.27;;;;;;;;;;5026750;28;20018;-57
2023/09/08 03:57:42;;;;;;;37.40;34.67;;;;;;;;;;5029141;28;20465;-57
2023/09/08 04:00:07;;;;;;;47.03;43.90;;;;;;;;;;5016784;28;20045;-57
2023/09/08 04:02:33;;;;;;;42.42;39.42;;;;;;;;;;5017178;28;20552;-58
2023/09/08 04:04:58;;;;;;;50.60;47.40;;;;;;;;;;5016087;28;20380;-58
2023/09/08 04:07:23;;;;;;;39.97;36.77;;;;;;;;;;5019521;28;20441;-57
2023/09/08 04:09:48;;;;;;;63.72;59.22;;;;;;;;;;5013940;28;20032;-57
2023/09/08 04:12:13;;;;;;;64.67;59.40;;;;;;;;;;5018034;28;20018;-57
2023/09/08 04:14:38;;;;;;;33.57;31.00;;;;;;;;;;5020904;28;20021;-58
2023/09/08 04:17:04;;;;;;;29.77;27.60;;;;;;;;;;5016191;28;20029;-57
2023/09/08 04:19:29;;;;;;;19.07;17.57;;;;;;;;;;5020186;28;20019;-58
2023/09/08 04:21:54;;;;;;;92.57;86.55;;;;;;;;;;5020295;28;20018;-58
2023/09/08 04:24:19;;;;;;;23.73;21.93;;;;;;;;;;5030463;28;20021;-57
2023/09/08 04:26:45;;;;;;;38.88;36.10;;;;;;;;;;5017520;28;20025;-57
2023/09/08 04:29:10;;;;;;;18.60;17.03;;;;;;;;;;5016332;28;20125;-57
2023/09/08 04:31:35;;;;;;;16.77;15.33;;;;;;;;;;5015105;28;20030;-57
2023/09/08 04:34:00;;;;;;;77.30;71.73;;;;;;;;;;5012835;28;20022;-57
2023/09/08 04:36:25;;;;;;;28.73;26.43;;;;;;;;;;5016349;28;20025;-57
2023/09/08 04:38:51;;;;;;;13.90;12.60;;;;;;;;;;5015661;28;20045;-57
2023/09/08 04:41:16;;;;;;;92.03;85.50;;;;;;;;;;5019084;28;20029;-56
2023/09/08 04:43:41;;;;;;;101.10;94.20;;;;;;;;;;5026247;28;20044;-57
2023/09/08 04:46:06;;;;;;;36.28;33.63;;;;;;;;;;5019592;28;20026;-57
2023/09/08 04:48:31;;;;;;;16.20;14.80;;;;;;;;;;5016311;28;20033;-56
2023/09/08 04:50:56;;;;;;;19.98;18.40;;;;;;;;;;5025569;28;20024;-56
2023/09/08 04:53:22;;;;;;;27.07;24.77;;;;;;;;;;5048685;28;20043;-57
2023/09/08 04:55:47;;;;;;;65.00;60.43;;;;;;;;;;5030258;28;20487;-56
2023/09/08 04:58:12;;;;;;;17.43;15.93;;;;;;;;;;5020767;28;20095;-57
2023/09/08 05:00:38;;;;;;;37.17;34.43;;;;;;;;;;5028394;28;20030;-57
2023/09/08 05:03:04;;;;;;;76.10;70.95;;;;;;;;;;5022632;28;20321;-57
2023/09/08 05:05:29;;;;;;;22.25;20.13;;;;;;;;;;5026334;28;20014;-56
2023/09/08 05:07:56;;;;;;;52.70;48.67;;;;;;;;;;5048030;28;20052;-57
2023/09/08 05:10:21;;;;;;;15.13;13.35;;;;;;;;;;5047810;28;20086;-56
2023/09/08 05:12:46;;;;;;;17.23;15.53;;;;;;;;;;5041971;28;20025;-57
2023/09/08 05:15:15;;;;;;;41.80;38.63;;;;;;;;;;5019046;28;20018;-57
2023/09/08 05:17:40;;;;;;;21.48;19.58;;;;;;;;;;5022052;28;20040;-57
2023/09/08 05:20:06;;;;;;;18.23;16.52;;;;;;;;;;5018521;28;20449;-57
2023/09/08 05:22:31;;;;;;;49.47;45.72;;;;;;;;;;5022175;28;20473;-57
2023/09/08 05:24:56;;;;;;;118.07;110.20;;;;;;;;;;5012147;28;20018;-57
2023/09/08 05:27:21;;;;;;;32.33;29.60;;;;;;;;;;5011086;28;20025;-57
2023/09/08 05:29:46;;;;;;;90.53;84.60;;;;;;;;;;5016961;28;20468;-57
2023/09/08 05:32:11;;;;;;;28.88;26.80;;;;;;;;;;5022939;28;20037;-57
2023/09/08 05:34:37;;;;;;;120.15;112.63;;;;;;;;;;5029281;28;20211;-57
2023/09/08 05:37:02;;;;;;;54.33;50.43;;;;;;;;;;5022454;28;20028;-57
2023/09/08 05:39:27;;;;;;;20.93;19.23;;;;;;;;;;5016040;28;20128;-57
2023/09/08 05:41:52;;;;;;;32.63;30.17;;;;;;;;;;5023381;28;20097;-58
2023/09/08 05:44:17;;;;;;;38.67;35.97;;;;;;;;;;5027539;28;20039;-57
2023/09/08 05:46:42;;;;;;;114.40;106.60;;;;;;;;;;5029190;28;20465;-57
2023/09/08 05:49:08;;;;;;;74.27;68.60;;;;;;;;;;5026993;28;20022;-57
2023/09/08 05:51:33;;;;;;;83.60;77.88;;;;;;;;;;5028597;28;20027;-57
2023/09/08 05:53:58;;;;;;;31.33;29.00;;;;;;;;;;5050732;28;20017;-57
2023/09/08 05:56:30;;;;;;;114.83;106.83;;;;;;;;;;5027688;28;20033;-57
2023/09/08 05:58:56;;;;;;;35.25;32.72;;;;;;;;;;5024465;28;20057;-57
2023/09/08 06:01:21;;;;;;;112.40;105.35;;;;;;;;;;5027769;28;20060;-57
2023/09/08 06:03:46;;;;;;;72.30;67.27;;;;;;;;;;5022951;28;20505;-57
2023/09/08 06:06:11;;;;;;;100.18;93.07;;;;;;;;;;5025468;28;20024;-57
2023/09/08 06:08:36;;;;;;;127.47;118.13;;;;;;;;;;5011379;28;20014;-56
2023/09/08 06:11:02;;;;;;;30.85;28.42;;;;;;;;;;5036346;28;20475;-57
2023/09/08 06:13:27;;;;;;;65.17;60.60;;;;;;;;;;5046636;28;20033;-58
2023/09/08 06:15:52;;;;;;;64.63;59.75;;;;;;;;;;5022095;28;20018;-58
2023/09/08 06:18:17;;;;;;;83.30;77.70;;;;;;;;;;5044171;28;20077;-58
2023/09/08 06:20:46;;;;;;;49.60;45.97;;;;;;;;;;5020081;28;20018;-58
2023/09/08 06:23:12;;;;;;;31.63;29.13;;;;;;;;;;5011038;28;20052;-58
2023/09/08 06:25:37;;;;;;;36.40;33.77;;;;;;;;;;5024906;28;20488;-57
2023/09/08 06:28:02;;;;;;;111.87;104.23;;;;;;;;;;5027453;28;20029;-57
2023/09/08 06:30:27;;;;;;;82.43;75.57;;;;;;;;;;5026836;28;20033;-58
2023/09/08 06:32:52;;;;;;;87.57;81.10;;;;;;;;;;5028108;28;20025;-59
2023/09/08 06:35:18;;;;;;;30.92;28.83;;;;;;;;;;5026922;28;20017;-58
2023/09/08 06:37:43;;;;;;;103.00;95.60;;;;;;;;;;5022208;28;20033;-58
2023/09/08 06:40:08;;;;;;;60.13;56.00;;;;;;;;;;5027868;28;20022;-57
2023/09/08 06:42:33;;;;;;;142.23;131.13;;;;;;;;;;5028820;28;20029;-57
2023/09/08 06:44:59;;;;;;;95.73;88.87;;;;;;;;;;5021781;28;20071;-57
2023/09/08 06:47:24;;;;;;;123.63;115.22;;;;;;;;;;5015545;28;20064;-58
2023/09/08 06:49:49;;;;;;;74.50;69.13;;;;;;;;;;5015959;28;20491;-57
2023/09/08 06:52:14;;;;;;;55.37;51.03;;;;;;;;;;5018310;28;20033;-57
2023/09/08 06:54:39;;;;;;;88.53;83.00;;;;;;;;;;5016345;28;20021;-57
2023/09/08 06:57:04;;;;;;;129.77;120.40;;;;;;;;;;5050511;28;20048;-57
2023/09/08 06:59:30;;;;;;;145.00;132.67;;;;;;;;;;5043671;28;20108;-57
2023/09/08 07:01:55;;;;;;;67.67;62.80;;;;;;;;;;5020090;28;20052;-56
2023/09/08 07:04:20;;;;;;;174.97;162.20;;;;;;;;;;5041537;28;20355;-57
2023/09/08 07:06:46;;;;;;;165.67;152.23;;;;;;;;;;5023382;28;20456;-57
2023/09/08 07:09:11;;;;;;;91.68;84.50;;;;;;;;;;5017119;28;20473;-57
2023/09/08 07:11:36;;;;;;;133.07;122.40;;;;;;;;;;5012397;28;20033;-56
2023/09/08 07:14:02;;;;;;;172.87;157.60;;;;;;;;;;5050357;28;20494;-56
2023/09/08 07:16:27;;;;;;;161.30;148.25;;;;;;;;;;5031759;28;20025;-57
2023/09/08 07:18:52;;;;;;;181.50;168.17;;;;;;;;;;5021692;28;20588;-57
2023/09/08 07:21:18;;;;;;;142.70;131.97;;;;;;;;;;5024155;28;20018;-57
2023/09/08 07:23:43;;;;;;;124.10;115.00;;;;;;;;;;5028908;28;20026;-57
2023/09/08 07:26:08;;;;;;;130.93;120.47;;;;;;;;;;5028992;28;20020;-57
2023/09/08 07:28:34;;;;;;;54.10;50.40;;;;;;;;;;5031243;28;20193;-57
2023/09/08 07:31:03;;;;;;;211.48;195.85;;;;;;;;;;5031086;28;20029;-57
2023/09/08 07:33:28;;;;;;;81.50;75.70;;;;;;;;;;5026772;28;20048;-57
2023/09/08 07:35:53;;;;;;;52.83;49.37;;;;;;;;;;5020736;28;20061;-57
2023/09/08 07:38:18;;;;;;;180.67;167.13;;;;;;;;;;5020682;28;20063;-57
2023/09/08 07:40:43;;;;;;;126.67;117.60;;;;;;;;;;5046127;28;20056;-56
2023/09/08 07:43:08;;;;;;;116.45;108.40;;;;;;;;;;5050396;28;20468;-56
2023/09/08 07:45:34;;;;;;;243.10;220.63;;;;;;;;;;5035400;28;20065;-57
2023/09/08 07:47:59;;;;;;;197.87;183.27;;;;;;;;;;5029402;28;20028;-57
2023/09/08 07:50:25;;;;;;;168.77;154.47;;;;;;;;;;5020892;28;20017;-58
2023/09/08 07:52:50;;;;;;;;;;;;;;;;;;5023554;28;20021;-57
2023/09/08 07:55:15;;;;;;;168.63;155.70;;;;;;;;;;5027576;28;19920;-58
2023/09/08 07:57:42;;;;;;;121.75;113.18;;;;;;;;;;5028591;28;20028;-57
2023/09/08 08:00:10;;;;;;;238.63;215.50;;;;;;;;;;5032215;28;20037;-58
2023/09/08 08:02:35;;;;;;;188.55;172.82;;;;;;;;;;5032730;28;20083;-58
2023/09/08 08:05:00;;;;;;;126.83;117.77;;;;;;;;;;5030310;28;20033;-57
2023/09/08 08:07:25;;;;;;;90.53;84.17;;;;;;;;;;5020943;28;20021;-58
2023/09/08 08:09:51;;;;;;;229.17;205.53;;;;;;;;;;5025157;28;20392;-58
2023/09/08 08:12:16;;;;;;;177.93;162.17;;;;;;;;;;5043458;28;20028;-58
2023/09/08 08:14:41;;;;;;;207.40;189.90;;;;;;;;;;5019117;28;20059;-58
2023/09/08 08:17:06;;;;;;;198.40;183.70;;;;;;;;;;5052148;28;20021;-56
2023/09/08 08:19:31;;;;;;;203.87;187.73;;;;;;;;;;5050820;28;20017;-58
2023/09/08 08:21:57;;;;;;;293.15;270.95;;;;;;;;;;5023162;28;20043;-58
2023/09/08 08:24:22;;;;;;;231.00;208.73;;;;;;;;;;5035688;28;20021;-57
2023/09/08 08:26:47;;;;;;;179.15;161.65;;;;;;;;;;5052454;28;20060;-58
2023/09/08 08:29:12;;;;;;;114.47;106.27;;;;;;;;;;5036474;28;20081;-58
2023/09/08 08:31:38;;;;;;;277.97;256.00;;;;;;;;;;5037522;28;20451;-58
2023/09/08 08:34:03;;;;;;;241.30;222.67;;;;;;;;;;5020164;28;20089;-58
2023/09/08 08:36:28;;;;;;;226.27;206.32;;;;;;;;;;5014623;28;20014;-57
2023/09/08 08:38:54;;;;;;;357.20;321.85;;;;;;;;;;5020445;28;20412;-58
2023/09/08 08:41:19;;;;;;;150.37;136.83;;;;;;;;;;5032806;28;20017;-56
2023/09/08 08:43:45;;;;;;;251.97;230.73;;;;;;;;;;5022682;28;20014;-57
2023/09/08 08:46:11;;;;;;;169.52;154.55;;;;;;;;;;5026415;28;20055;-56
2023/09/08 08:48:36;;;;;;;251.70;227.70;;;;;;;;;;5052606;28;20104;-57
2023/09/08 08:51:02;;;;;;;323.40;293.33;;;;;;;;;;5039532;28;20077;-57
2023/09/08 08:53:27;;;;;;;296.73;269.10;;;;;;;;;;5023205;28;20034;-56
2023/09/08 08:55:54;;;;;;;241.35;222.95;;;;;;;;;;5042892;28;20507;-57
2023/09/08 08:58:24;;;;;;;348.45;313.88;;;;;;;;;;5051749;28;20380;-57
2023/09/08 09:00:50;;;;;;;336.42;302.15;;;;;;;;;;5050379;28;20066;-56
2023/09/08 09:03:15;;;;;;;433.33;383.58;;;;;;;;;;5027906;28;20112;-57
2023/09/08 09:05:41;;;;;;;326.00;300.67;;;;;;;;;;5024343;28;20036;-57
2023/09/08 09:08:06;;;;;;;232.32;213.00;;;;;;;;;;5024155;28;20022;-57
2023/09/08 09:10:31;;;;;;;286.92;261.20;;;;;;;;;;5018061;28;20503;-57
2023/09/08 09:12:57;;;;;;;248.90;228.37;;;;;;;;;;5033537;28;20013;-57
2023/09/08 09:15:29;;;;;;;219.43;198.87;;;;;;;;;;5017147;28;20433;-57
2023/09/08 09:18:21;;;;;;;312.80;281.92;;;;;;;;;;5012058;28;20025;-57
2023/09/08 09:20:56;;;;;;;330.77;302.30;;;;;;;;;;5009210;28;20049;-56
2023/09/08 09:23:31;;;;;;;319.80;293.48;;;;;;;;;;5023283;28;20017;-56
2023/09/08 09:25:57;;;;;;;333.67;304.13;;;;;;;;;;5020600;28;20159;-56
2023/09/08 09:28:22;;;;;;;316.33;289.02;;;;;;;;;;5050881;28;20100;-57
2023/09/08 09:30:48;;;;;;;259.73;239.87;;;;;;;;;;5045602;28;20025;-57
2023/09/08 09:33:13;;;;;;;;;;;;;;;;;;5023554;28;20024;-57
2023/09/08 09:35:45;;;;;;;345.95;312.13;;;;;;;;;;5014567;28;19906;-57
2023/09/08 09:38:11;;;;;;;372.63;338.90;;;;;;;;;;5022175;28;20025;-57
2023/09/08 09:40:37;;;;;;;404.63;364.75;;;;;;;;;;5027106;28;20076;-57
2023/09/08 09:43:04;;;;;;;;;;;;;;;;;;5028181;28;20026;-57
2023/09/08 09:45:29;;;;;;;482.92;431.13;;;;;;;;;;5011387;28;20322;-57
2023/09/08 09:47:55;;;;;;;381.53;348.73;;;;;;;;;;5011597;28;20025;-56
2023/09/08 09:50:31;;;;;;;370.55;335.90;;;;;;;;;;5014838;28;20079;-56
2023/09/08 09:53:02;;;;;;;327.45;293.20;;;;;;;;;;5021089;28;20030;-58
2023/09/08 09:55:28;;;;;;;313.92;283.80;;;;;;;;;;5046723;28;20048;-57
2023/09/08 09:57:56;;;;;;;362.08;326.85;;;;;;;;;;5040848;28;20523;-56
2023/09/08 10:00:21;;;;;;;298.20;271.27;;;;;;;;;;5029889;28;20045;-58
2023/09/08 10:02:46;;;;;;;;;;;;;;;;;;5021685;28;20057;-57
2023/09/08 10:05:13;;;;;;;326.15;296.45;;;;;;;;;;5011768;28;19909;-58
2023/09/08 10:07:39;;;;;;;263.50;242.43;;;;;;;;;;5016062;28;20401;-57
2023/09/08 10:10:05;;;;;;;365.73;331.58;;;;;;;;;;5026106;28;20061;-56
2023/09/08 10:12:31;;;;;;;;;;;;;;;;;;5025774;28;20045;-56
2023/09/08 10:14:57;;;;;;;473.45;432.02;;;;;;;;;;5021915;28;19959;-57
2023/09/08 10:17:24;;;;;;;;;;;;;;;;;;5031228;28;20018;-56
2023/09/08 10:19:51;;;;;;;518.22;471.65;;;;;;;;;;5030010;28;20113;-56
2023/09/08 10:22:19;;;;;;;428.90;384.17;;;;;;;;;;5021801;28;20481;-57
2023/09/08 10:24:46;;;;;;;354.10;313.88;;;;;;;;;;5015863;28;20075;-56
2023/09/08 10:27:11;;;;;;;392.63;361.40;;;;;;;;;;5026549;28;20450;-57
2023/09/08 10:29:36;;;;;;;;;;;;;;;;;;5018588;28;20021;-57
2023/09/08 10:32:02;;;;;;;377.48;346.45;;;;;;;;;;5021705;28;19913;-58
2023/09/08 10:34:27;;;;;;;;;;;;;;;;;;5031380;28;20017;-58
2023/09/08 10:36:52;;;;;;;466.75;425.95;;;;;;;;;;5026865;28;19971;-57
2023/09/08 10:39:17;;;;;;;;;;;;;;;;;;5021974;28;23309;-57
2023/09/08 10:41:44;;;;;;;427.75;387.13;;;;;;;;;;5047713;28;19927;-58
2023/09/08 10:44:14;;;;;;;393.50;358.20;;;;;;;;;;5050089;28;20491;-56
2023/09/08 10:46:39;;;;;;;318.60;288.80;;;;;;;;;;5039115;28;20075;-56
2023/09/08 10:49:04;;;;;;;;;;;;;;;;;;5018581;28;20461;-57
2023/09/08 10:51:30;;;;;;;453.00;413.97;;;;;;;;;;5015738;28;19963;-57
2023/09/08 10:53:55;;;;;;;;;;;;;;;;;;5021759;28;20030;-57
2023/09/08 10:56:20;;;;;;;239.85;215.80;;;;;;;;;;5032948;28;20016;-57
2023/09/08 10:58:45;;;;;;;;;;;;;;;;;;5019619;28;20026;-57
2023/09/08 11:01:16;;;;;;;447.88;405.20;;;;;;;;;;5029878;28;19932;-57
2023/09/08 11:03:41;;;;;;;450.23;405.67;;;;;;;;;;5030222;28;20066;-57
2023/09/08 11:06:07;;;;;;;443.55;402.00;;;;;;;;;;5028917;28;20105;-57
2023/09/08 11:08:32;;;;;;;;;;;;;;;;;;5020942;28;20051;-57
2023/09/08 11:10:57;;;;;;;352.30;316.70;;;;;;;;;;5037416;28;20340;-57
2023/09/08 11:13:22;;;;;;;;;;;;;;;;;;5050435;28;20024;-57
2023/09/08 11:15:47;;;;;;;343.90;312.90;;;;;;;;;;5048575;28;19908;-57
2023/09/08 11:18:12;;;;;;;;;;;;;;;;;;5018395;28;20053;-57
2023/09/08 11:20:38;;;;;;;475.65;430.30;;;;;;;;;;5013070;28;19909;-57
2023/09/08 11:23:04;;;;;;;;;;;;;;;;;;5021056;28;20108;-57
2023/09/08 11:25:30;;;;;;;458.65;418.08;;;;;;;;;;5026089;28;19947;-57
2023/09/08 11:27:56;;;;;;;383.95;346.75;;;;;;;;;;5015241;28;20443;-59
2023/09/08 11:30:22;;;;;;;355.55;320.65;;;;;;;;;;5013235;28;20076;-57
2023/09/08 11:32:47;;;;;;;;;;;;;;;;;;5025200;28;20017;-57
2023/09/08 11:35:13;;;;;;;468.75;422.70;;;;;;;;;;5036120;28;19935;-58
2023/09/08 11:37:39;;;;;;;391.02;350.67;;;;;;;;;;5027203;28;20022;-57
2023/09/08 11:40:14;;;;;;;609.42;518.75;;;;;;;;;;5020885;28;20022;-58
2023/09/08 11:42:45;;;;;;;412.63;369.45;;;;;;;;;;5024289;28;20027;-57
2023/09/08 11:45:10;;;;;;;;;;;;;;;;;;5027004;28;20449;-57
2023/09/08 11:47:36;;;;;;;555.28;509.23;;;;;;;;;;5032412;28;20411;-57
2023/09/08 11:50:01;;;;;;;;;;;;;;;;;;5053230;28;20025;-58
2023/09/08 11:52:26;;;;;;;414.63;379.83;;;;;;;;;;5024755;28;20345;-57
2023/09/08 11:54:51;;;;;;;;;;;;;;;;;;5023098;28;20036;-55
2023/09/08 11:57:16;;;;;;;389.55;354.33;;;;;;;;;;5013836;28;19929;-55
2023/09/08 11:59:41;;;;;;;;;;;;;;;;;;5013707;28;20473;-56
2023/09/08 12:02:07;;;;;;;398.80;363.98;;;;;;;;;;5013685;28;20349;-57
2023/09/08 12:04:32;;;;;;;;;;;;;;;;;;5029154;28;20021;-57
2023/09/08 12:06:57;;;;;;;410.67;365.40;;;;;;;;;;5031447;28;19924;-57
2023/09/08 12:09:22;;;;;;;;;;;;;;;;;;5033412;28;20064;-56
2023/09/08 12:11:47;;;;;;;513.83;465.60;;;;;;;;;;5033271;28;19909;-57
2023/09/08 12:14:12;;;;;;;;;;;;;;;;;;5028243;28;20025;-57
2023/09/08 12:16:38;;;;;;;383.97;347.07;;;;;;;;;;5024339;28;19975;-57
2023/09/08 12:19:03;;;;;;;;;;;;;;;;;;5030177;28;20021;-57
2023/09/08 12:21:28;;;;;;;483.47;434.37;;;;;;;;;;5020351;28;19916;-56
2023/09/08 12:23:53;;;;;;;;;;;;;;;;;;5028917;28;20390;-57
2023/09/08 12:26:19;;;;;;;483.77;442.00;;;;;;;;;;5019041;28;19940;-57
2023/09/08 12:28:44;;;;;;;;;;;;;;;;;;5014151;28;20382;-56
2023/09/08 12:31:09;;;;;;;342.65;311.90;;;;;;;;;;5009011;28;19924;-57
2023/09/08 12:33:34;;;;;;;;;;;;;;;;;;5010211;28;20022;-57
2023/09/08 12:36:00;;;;;;;445.35;402.33;;;;;;;;;;5021606;28;19913;-56
2023/09/08 12:38:25;;;;;;;;;;;;;;;;;;5014168;28;20033;-55
2023/09/08 12:40:50;;;;;;;393.30;350.90;;;;;;;;;;5016500;28;20055;-56
2023/09/08 12:43:15;;;;;;;;;;;;;;;;;;5024327;28;20144;-58
2023/09/08 12:45:40;;;;;;;392.57;360.53;;;;;;;;;;5013690;28;19950;-56
2023/09/08 12:48:06;;;;;;;;;;;;;;;;;;5009895;28;20477;-56
2023/09/08 12:50:32;;;;;;;378.23;341.75;;;;;;;;;;5016424;28;19917;-56
2023/09/08 12:52:57;;;;;;;;;;;;;;;;;;5009685;28;20366;-56
2023/09/08 12:55:22;;;;;;;413.40;368.63;;;;;;;;;;5009038;28;20474;-57
2023/09/08 12:57:49;;;;;;;;;;;;;;;;;;5014631;28;20029;-57
2023/09/08 13:00:15;;;;;;;496.00;449.60;;;;;;;;;;5012507;28;19913;-56
2023/09/08 13:02:40;;;;;;;;;;;;;;;;;;5020338;28;20022;-56
2023/09/08 13:05:05;;;;;;;450.70;407.57;;;;;;;;;;5016362;28;20362;-56
2023/09/08 13:07:30;;;;;;;;;;;;;;;;;;5011207;28;20455;-56
2023/09/08 13:09:55;;;;;;;520.77;467.97;;;;;;;;;;5018444;28;19913;-56
2023/09/08 13:12:21;;;;;;;;;;;;;;;;;;5014694;28;20029;-56
2023/09/08 13:14:46;;;;;;;503.58;460.73;;;;;;;;;;5015200;28;19913;-56
2023/09/08 13:17:11;;;;;;;;;;;;;;;;;;5015056;28;20041;-56
2023/09/08 13:19:37;;;;;;;446.13;405.45;;;;;;;;;;5008182;28;19921;-55
2023/09/08 13:22:03;;;;;;;362.23;332.05;;;;;;;;;;5021123;28;20040;-56
2023/09/08 13:24:28;;;;;;;;;;;;;;;;;;5021680;28;20017;-56
2023/09/08 13:26:53;;;;;;;385.35;346.98;;;;;;;;;;5008986;28;19914;-57
2023/09/08 13:29:18;;;;;;;;;;;;;;;;;;5006692;28;20481;-57
2023/09/08 13:31:44;;;;;;;379.30;345.73;;;;;;;;;;5011137;28;19979;-56
2023/09/08 13:34:09;;;;;;;;;;;;;;;;;;5009571;28;20030;-56
2023/09/08 13:36:34;;;;;;;525.17;476.67;;;;;;;;;;5022914;28;20017;-57
2023/09/08 13:39:00;;;;;;;;;;;;;;;;;;5011725;28;20127;-56
2023/09/08 13:41:25;;;;;;;346.80;317.85;;;;;;;;;;5019846;28;20004;-56
2023/09/08 13:43:50;;;;;;;321.60;292.43;;;;;;;;;;5012102;28;20068;-56
2023/09/08 13:46:15;;;;;;;;;;;;;;;;;;5034056;28;20033;-57
2023/09/08 13:48:40;;;;;;;467.30;423.63;;;;;;;;;;5042541;28;19905;-56
2023/09/08 13:51:05;;;;;;;;;;;;;;;;;;5018823;28;20022;-57
2023/09/08 13:53:30;;;;;;;485.27;441.13;;;;;;;;;;5025981;28;20292;-56
2023/09/08 13:55:56;;;;;;;;;;;;;;;;;;5017493;28;20159;-56
2023/09/08 13:58:21;;;;;;;457.98;413.08;;;;;;;;;;5015326;28;19914;-56
2023/09/08 14:00:48;;;;;;;;;;;;;;;;;;5008020;28;20034;-57
2023/09/08 14:03:14;;;;;;;313.42;281.75;;;;;;;;;;5010656;28;19913;-57
2023/09/08 14:05:39;;;;;;;;;;;;;;;;;;5013772;28;20101;-57
2023/09/08 14:08:04;;;;;;;356.65;323.33;;;;;;;;;;5018381;28;19921;-57
2023/09/08 14:10:29;;;;;;;;;;;;;;;;;;5017941;28;20026;-57
2023/09/08 14:12:55;;;;;;;432.63;389.83;;;;;;;;;;5011608;28;19913;-57
2023/09/08 14:15:20;;;;;;;463.87;418.07;;;;;;;;;;5015494;28;20057;-56